AirNav   Everest Fuels
 
 1556 users online  

WA49 Flying R Ranch Airport
Cheney, Washington, USA

GOING TO CHENEY?


FAA INFORMATION EFFECTIVE 04 NOVEMBER 2021

Location

FAA Identifier: WA49
Lat/Long: 47-30-10.0000N 117-38-52.0000W
47-30.166667N 117-38.866667W
47.5027778,-117.6477778
(estimated)
Elevation: 2450 ft. / 747 m (estimated)
From city: 3 miles W of CHENEY, WA
Time zone: UTC -7 (UTC -8 during Standard Time)
Zip code: 99004

Airport Operations

Airport use: Private use. Permission required prior to landing
Activation date: 10/2004
Control tower: no
ARTCC: SEATTLE CENTER
FSS: SEATTLE FLIGHT SERVICE STATION
Attendance: UNATNDD
Wind indicator: yes
Segmented circle: no

Airport Communications

WX ASOS at GEG (8 nm NE): PHONE 509-742-2544
WX ASOS at SFF (17 nm NE): 120.55 (509-535-3290)

Nearby radio navigation aids

VOR radial/distance  VOR name  Freq  Var
GEGr172/3.8SPOKANE VORTAC115.5021E
COEr225/37.2COEUR D'ALENE VOR/DME108.8019E

 
NDB name  Hdg/Dist  Freq  Var  ID
DEER PARK182/29.336516EDPY -.. .--. -.--

Airport Services

Runway Information

Runway 18/36

Dimensions: 2500 x 150 ft. / 762 x 46 m
Surface: turf
RUNWAY 18  RUNWAY 36
Traffic pattern: leftleft
Obstructions: 25 ft. pline, 50 ft. from runway25 ft. pline, 50 ft. from runway

Airport Ownership and Management from official FAA records

Ownership: Privately-owned
Owner: KAREN L RUNYON
16517 S DOVER RD
CHENEY, WA 99004
Phone (509) 981-6454
Manager: KAREN R RUNYON
16517 S DOVER RD
CHENEY, WA 99004
Phone (509) 981-6454

Airport Operational Statistics

Aircraft based on the field: 1
Single engine airplanes: 1
    

Additional Remarks

FOR CD CTC SPOKANE APCH AT 509-742-2522

Instrument Procedures

There are no published instrument procedures at WA49.

Some nearby airports with instrument procedures:

KSKA - Fairchild Air Force Base (7 nm N)
KGEG - Spokane International Airport (8 nm NE)
KSFF - Felts Field Airport (17 nm NE)
KDEW - Deer Park Airport (29 nm N)
KCOE - Coeur d'Alene Airport - Pappy Boyington Field (37 nm NE)
 
Loc | Ops | Rwys | IFR | FBO | Links
Com | Nav | Svcs | Stats | Notes
Area around WA49 (Flying R Ranch Airport)
 
Road maps at: MapQuest Bing Google
 
Aerial photo
No photo
 
Sectional chart

 
Airport distance calculator
Flying to Flying R Ranch Airport? Find the distance to fly.

From to WA49

Sunrise and sunset
Times for 29-Nov-2021
 Local
(UTC-8)
 Zulu
(UTC)
Morning civil twilight06:4114:41
Sunrise07:1615:16
Sunset16:0200:02
Evening civil twilight16:3700:37

Current date and time
Zulu (UTC)  30-Nov-2021 01:05:45
Local (UTC-8)  29-Nov-2021 17:05:45
 
METAR
KSKA 
7nm N 
300058Z 15005KT 10SM CLR 08/08 A3023 RMK AO2A SLP250 T00790078 $
KGEG 
8nm NE 
300053Z 19008KT 10SM FEW020 FEW030 FEW160 09/07 A3025 RMK AO2 SLP250 T00890067
KSFF 
17nm NE 
300053Z VRB03KT 10SM FEW016 BKN026 11/07 A3026 RMK AO2 SLP249 T01060072
TAF
KSKA 
7nm N 
291900Z 2919/0101 20012KT 9999 SCT010 BKN080 620804 QNH3017INS BECMG 3000/3001 19009KT 9999 BKN008 OVC025 620405 QNH3023INS BECMG 3008/3009 20012KT 9999 FEW008 BKN025 OVC160 QNH3010INS BECMG 3015/3016 20012G20KT 9999 VCSH OVC012 620806 QNH3006INS TX10/2923Z TN06/3011Z
KGEG 
8nm NE 
291737Z 2918/3018 19004KT P6SM VCSH BKN010 OVC120 FM292100 24009KT P6SM BKN030 FM300200 19008KT P6SM BKN020 FM300900 18008KT P6SM OVC250 FM301600 20010KT P6SM OVC020
KSFF 
17nm NE 
291737Z 2918/3018 VRB04KT P6SM VCSH BKN015 FM292100 23006KT P6SM SCT025 BKN040 FM300200 21005KT P6SM BKN025 FM300900 18008KT P6SM OVC250 FM301600 20010KT P6SM OVC020
NOTAMs
Click for the latest NOTAMs
NOTAMs are issued by the DoD/FAA and will open in a separate window not controlled by AirNav.

 

 
 

Would you like to see your business listed on this page?

 If your business provides an interesting product or service to pilots, flight crews, aircraft, or users of the Flying R Ranch Airport, you should consider listing it here.  To start the listing process, click on the button below
 
Add a business
 

Other Pages about Flying R Ranch Airport

Update a link
 
Copyright © AirNav, LLC. All rights reserved. Privacy Policy  Contact